Pagina principale
METAR-TAF:

METAR-TAF

Aeroporti :

Aeroporto di Cuneo-Levaldigi

Cuneo, Italia

latitudine: 44-32-47N, longitudine: 007-37-20E, altezza: 386 m

Osservazione

Il bollettino è stato emesso 6 ore e 22 minuti fa, alle 19:50 UTC
Vento 2 kt da direzioni variabili
Temperature 3°C
Umidità 87%
Pressione 1026 hPa
Visibilità 10 km o più
Nubi sparse ad un'altezza di 6000 ft

METAR: LIMZ 241950Z VRB02KT 9999 SCT060 03/01 Q1026

Ora: 03:12 (02:12 UTC)

Previsione

Il bollettino è stato emesso 9 ore e 12 minuti fa, alle 17:00 UTC
Previsione valida dal 24 alle 18 UTC al 25 alle 18 UTC
Vento 5 kt da direzioni variabili
Visibilità: 8000 m
Nubi sparse ad un'altezza di 3000 ft
Nubi sparse ad un'altezza di 7000 ft
Probabilità 40% :
Temporaneamente
dal 24 alle 18 UTC al 25 alle 02 UTC
Nuvoloso ad un'altezza di 1200 ft
Nuvoloso ad un'altezza di 4000 ft
pioggia

TAF: LIMZ 241700Z 2418/2518 VRB05KT 8000 SCT030 SCT070 PROB40 TEMPO 2418/2502 RA BKN012 BKN040

Osservazioni e previsioni meteorologiche di più di 4000 aeroporti (messaggi METAR e TAF).

Le stazioni disponibili sono rappresentate dai dischi gialli e rossi sulla carta.

Puntare il mouse per vedere il nome della stazione.

Clicca sopra per visualizzare le osservazioni e previsioni meteorologiche.

Per cambiare la mappa : fare clic sui pulsanti verdi con una croce nera per ingrandire, il pulsante verde con un trattino per diminuire, o sulla freccia verde per le mappe adiacenti.


METAR-TAF: